sensor_id;sensor_type;location;lat;lon;timestamp;P1;durP1;ratioP1;P2;durP2;ratioP2
84614;SDS011;74845;51.204;22.580;2024-03-08T00:02:08;114.15;;;79.63;;
84614;SDS011;74845;51.204;22.580;2024-03-08T00:04:35;107.32;;;74.43;;
84614;SDS011;74845;51.204;22.580;2024-03-08T00:07:02;110.85;;;76.82;;
84614;SDS011;74845;51.204;22.580;2024-03-08T00:09:28;110.30;;;78.00;;
84614;SDS011;74845;51.204;22.580;2024-03-08T00:11:57;114.18;;;75.93;;
84614;SDS011;74845;51.204;22.580;2024-03-08T00:14:24;103.38;;;70.72;;
84614;SDS011;74845;51.204;22.580;2024-03-08T00:16:51;93.53;;;65.72;;
84614;SDS011;74845;51.204;22.580;2024-03-08T00:19:19;90.18;;;64.72;;
84614;SDS011;74845;51.204;22.580;2024-03-08T00:21:45;96.03;;;62.72;;
84614;SDS011;74845;51.204;22.580;2024-03-08T00:24:12;94.47;;;64.40;;
84614;SDS011;74845;51.204;22.580;2024-03-08T00:26:39;91.05;;;59.35;;
84614;SDS011;74845;51.204;22.580;2024-03-08T00:29:05;79.63;;;55.50;;
84614;SDS011;74845;51.204;22.580;2024-03-08T00:31:34;80.70;;;56.35;;
84614;SDS011;74845;51.204;22.580;2024-03-08T00:34:01;77.75;;;56.03;;
84614;SDS011;74845;51.204;22.580;2024-03-08T00:36:28;79.05;;;54.72;;
84614;SDS011;74845;51.204;22.580;2024-03-08T00:38:56;78.75;;;55.58;;
84614;SDS011;74845;51.204;22.580;2024-03-08T00:41:23;84.60;;;57.45;;
84614;SDS011;74845;51.204;22.580;2024-03-08T00:43:53;80.47;;;56.00;;
84614;SDS011;74845;51.204;22.580;2024-03-08T00:46:19;75.90;;;55.15;;
84614;SDS011;74845;51.204;22.580;2024-03-08T00:48:46;78.28;;;53.58;;
84614;SDS011;74845;51.204;22.580;2024-03-08T00:51:13;73.68;;;51.10;;
84614;SDS011;74845;51.204;22.580;2024-03-08T00:53:41;80.97;;;52.95;;
84614;SDS011;74845;51.204;22.580;2024-03-08T00:56:09;72.85;;;52.90;;
84614;SDS011;74845;51.204;22.580;2024-03-08T00:58:36;76.95;;;47.75;;
84614;SDS011;74845;51.204;22.580;2024-03-08T01:01:03;65.40;;;47.90;;
84614;SDS011;74845;51.204;22.580;2024-03-08T01:03:31;68.40;;;44.70;;
84614;SDS011;74845;51.204;22.580;2024-03-08T01:05:58;57.53;;;42.47;;
84614;SDS011;74845;51.204;22.580;2024-03-08T01:08:27;67.72;;;46.35;;
84614;SDS011;74845;51.204;22.580;2024-03-08T01:10:55;73.55;;;51.90;;
84614;SDS011;74845;51.204;22.580;2024-03-08T01:13:22;70.88;;;49.55;;
84614;SDS011;74845;51.204;22.580;2024-03-08T01:15:49;72.93;;;51.58;;
84614;SDS011;74845;51.204;22.580;2024-03-08T01:18:16;69.15;;;49.47;;
84614;SDS011;74845;51.204;22.580;2024-03-08T01:20:43;74.90;;;51.22;;
84614;SDS011;74845;51.204;22.580;2024-03-08T01:23:10;63.95;;;48.80;;
84614;SDS011;74845;51.204;22.580;2024-03-08T01:25:36;69.05;;;50.42;;
84614;SDS011;74845;51.204;22.580;2024-03-08T01:28:03;75.03;;;52.30;;
84614;SDS011;74845;51.204;22.580;2024-03-08T01:30:30;70.47;;;49.58;;
84614;SDS011;74845;51.204;22.580;2024-03-08T01:32:59;61.95;;;45.25;;
84614;SDS011;74845;51.204;22.580;2024-03-08T01:35:25;72.85;;;49.92;;
84614;SDS011;74845;51.204;22.580;2024-03-08T01:37:53;65.80;;;49.47;;
84614;SDS011;74845;51.204;22.580;2024-03-08T01:40:20;69.95;;;48.67;;
84614;SDS011;74845;51.204;22.580;2024-03-08T01:42:47;66.13;;;47.28;;
84614;SDS011;74845;51.204;22.580;2024-03-08T01:45:14;69.68;;;48.38;;
84614;SDS011;74845;51.204;22.580;2024-03-08T01:47:41;63.15;;;45.35;;
84614;SDS011;74845;51.204;22.580;2024-03-08T01:50:08;55.92;;;42.15;;
84614;SDS011;74845;51.204;22.580;2024-03-08T01:52:35;58.78;;;44.30;;
84614;SDS011;74845;51.204;22.580;2024-03-08T01:55:03;64.15;;;45.22;;
84614;SDS011;74845;51.204;22.580;2024-03-08T01:57:35;68.18;;;45.33;;
84614;SDS011;74845;51.204;22.580;2024-03-08T02:00:03;56.30;;;45.45;;
84614;SDS011;74845;51.204;22.580;2024-03-08T02:02:32;66.65;;;45.90;;
84614;SDS011;74845;51.204;22.580;2024-03-08T02:05:00;60.90;;;42.75;;
84614;SDS011;74845;51.204;22.580;2024-03-08T02:07:27;59.13;;;45.53;;
84614;SDS011;74845;51.204;22.580;2024-03-08T02:09:54;58.17;;;41.97;;
84614;SDS011;74845;51.204;22.580;2024-03-08T02:12:21;59.60;;;43.53;;
84614;SDS011;74845;51.204;22.580;2024-03-08T02:14:48;61.78;;;43.83;;
84614;SDS011;74845;51.204;22.580;2024-03-08T02:17:15;58.30;;;42.70;;
84614;SDS011;74845;51.204;22.580;2024-03-08T02:19:41;63.80;;;44.22;;
84614;SDS011;74845;51.204;22.580;2024-03-08T02:22:08;56.92;;;42.45;;
84614;SDS011;74845;51.204;22.580;2024-03-08T02:24:35;59.92;;;44.28;;
84614;SDS011;74845;51.204;22.580;2024-03-08T02:27:02;53.35;;;40.15;;
84614;SDS011;74845;51.204;22.580;2024-03-08T02:29:29;59.22;;;44.13;;
84614;SDS011;74845;51.204;22.580;2024-03-08T02:31:57;52.40;;;38.67;;
84614;SDS011;74845;51.204;22.580;2024-03-08T02:34:24;51.65;;;37.17;;
84614;SDS011;74845;51.204;22.580;2024-03-08T02:36:51;44.70;;;35.55;;
84614;SDS011;74845;51.204;22.580;2024-03-08T02:39:18;46.25;;;36.22;;
84614;SDS011;74845;51.204;22.580;2024-03-08T02:41:46;47.55;;;35.45;;
84614;SDS011;74845;51.204;22.580;2024-03-08T02:44:13;45.08;;;34.22;;
84614;SDS011;74845;51.204;22.580;2024-03-08T02:46:41;43.03;;;29.95;;
84614;SDS011;74845;51.204;22.580;2024-03-08T02:49:07;39.63;;;31.33;;
84614;SDS011;74845;51.204;22.580;2024-03-08T02:51:34;48.03;;;35.90;;
84614;SDS011;74845;51.204;22.580;2024-03-08T02:54:02;47.55;;;35.17;;
84614;SDS011;74845;51.204;22.580;2024-03-08T02:56:30;47.28;;;33.78;;
84614;SDS011;74845;51.204;22.580;2024-03-08T02:59:01;48.22;;;31.33;;
84614;SDS011;74845;51.204;22.580;2024-03-08T03:01:29;38.85;;;33.10;;
84614;SDS011;74845;51.204;22.580;2024-03-08T03:03:56;48.80;;;33.30;;
84614;SDS011;74845;51.204;22.580;2024-03-08T03:06:23;46.88;;;34.20;;
84614;SDS011;74845;51.204;22.580;2024-03-08T03:08:50;43.72;;;31.92;;
84614;SDS011;74845;51.204;22.580;2024-03-08T03:11:17;38.15;;;30.05;;
84614;SDS011;74845;51.204;22.580;2024-03-08T03:13:44;40.38;;;34.13;;
84614;SDS011;74845;51.204;22.580;2024-03-08T03:16:18;47.53;;;34.70;;
84614;SDS011;74845;51.204;22.580;2024-03-08T03:18:46;46.88;;;32.40;;
84614;SDS011;74845;51.204;22.580;2024-03-08T03:21:13;43.60;;;32.28;;
84614;SDS011;74845;51.204;22.580;2024-03-08T03:23:41;41.97;;;32.95;;
84614;SDS011;74845;51.204;22.580;2024-03-08T03:26:09;42.95;;;32.28;;
84614;SDS011;74845;51.204;22.580;2024-03-08T03:28:38;44.80;;;32.92;;
84614;SDS011;74845;51.204;22.580;2024-03-08T03:31:06;50.05;;;35.10;;
84614;SDS011;74845;51.204;22.580;2024-03-08T03:33:36;43.70;;;32.08;;
84614;SDS011;74845;51.204;22.580;2024-03-08T03:36:03;39.65;;;30.95;;
84614;SDS011;74845;51.204;22.580;2024-03-08T03:38:31;39.47;;;31.00;;
84614;SDS011;74845;51.204;22.580;2024-03-08T03:40:58;36.58;;;29.60;;
84614;SDS011;74845;51.204;22.580;2024-03-08T03:43:32;39.78;;;30.63;;
84614;SDS011;74845;51.204;22.580;2024-03-08T03:45:59;46.38;;;34.88;;
84614;SDS011;74845;51.204;22.580;2024-03-08T03:48:26;41.17;;;32.38;;
84614;SDS011;74845;51.204;22.580;2024-03-08T03:50:53;40.88;;;31.35;;
84614;SDS011;74845;51.204;22.580;2024-03-08T03:53:20;43.40;;;34.65;;
84614;SDS011;74845;51.204;22.580;2024-03-08T03:55:47;38.10;;;30.27;;
84614;SDS011;74845;51.204;22.580;2024-03-08T03:58:13;41.67;;;31.38;;
84614;SDS011;74845;51.204;22.580;2024-03-08T04:00:40;45.25;;;33.50;;
84614;SDS011;74845;51.204;22.580;2024-03-08T04:03:07;43.58;;;30.88;;
84614;SDS011;74845;51.204;22.580;2024-03-08T04:05:35;39.58;;;31.23;;
84614;SDS011;74845;51.204;22.580;2024-03-08T04:08:02;43.42;;;32.55;;
84614;SDS011;74845;51.204;22.580;2024-03-08T04:10:29;42.50;;;34.38;;
84614;SDS011;74845;51.204;22.580;2024-03-08T04:12:56;44.97;;;35.03;;
84614;SDS011;74845;51.204;22.580;2024-03-08T04:15:23;37.05;;;30.85;;
84614;SDS011;74845;51.204;22.580;2024-03-08T04:17:50;37.78;;;30.40;;
84614;SDS011;74845;51.204;22.580;2024-03-08T04:20:17;45.78;;;33.42;;
84614;SDS011;74845;51.204;22.580;2024-03-08T04:22:44;42.03;;;29.80;;
84614;SDS011;74845;51.204;22.580;2024-03-08T04:25:13;34.47;;;29.40;;
84614;SDS011;74845;51.204;22.580;2024-03-08T04:27:40;40.25;;;31.23;;
84614;SDS011;74845;51.204;22.580;2024-03-08T04:30:07;42.65;;;34.97;;
84614;SDS011;74845;51.204;22.580;2024-03-08T04:32:35;41.88;;;32.90;;
84614;SDS011;74845;51.204;22.580;2024-03-08T04:35:02;38.35;;;29.55;;
84614;SDS011;74845;51.204;22.580;2024-03-08T04:37:30;44.00;;;31.63;;
84614;SDS011;74845;51.204;22.580;2024-03-08T04:39:57;47.45;;;35.85;;
84614;SDS011;74845;51.204;22.580;2024-03-08T04:42:24;50.33;;;34.58;;
84614;SDS011;74845;51.204;22.580;2024-03-08T04:44:51;40.30;;;34.58;;
84614;SDS011;74845;51.204;22.580;2024-03-08T04:47:20;50.13;;;36.13;;
84614;SDS011;74845;51.204;22.580;2024-03-08T04:49:47;47.42;;;34.92;;
84614;SDS011;74845;51.204;22.580;2024-03-08T04:52:13;45.47;;;35.53;;
84614;SDS011;74845;51.204;22.580;2024-03-08T04:54:40;46.95;;;33.92;;
84614;SDS011;74845;51.204;22.580;2024-03-08T04:57:07;40.45;;;31.33;;
84614;SDS011;74845;51.204;22.580;2024-03-08T04:59:35;47.53;;;33.28;;
84614;SDS011;74845;51.204;22.580;2024-03-08T05:02:03;45.58;;;32.53;;
84614;SDS011;74845;51.204;22.580;2024-03-08T05:04:30;39.47;;;32.30;;
84614;SDS011;74845;51.204;22.580;2024-03-08T05:06:56;38.42;;;31.25;;
84614;SDS011;74845;51.204;22.580;2024-03-08T05:09:23;41.33;;;32.33;;
84614;SDS011;74845;51.204;22.580;2024-03-08T05:11:50;41.75;;;31.70;;
84614;SDS011;74845;51.204;22.580;2024-03-08T05:14:17;45.08;;;33.35;;
84614;SDS011;74845;51.204;22.580;2024-03-08T05:16:47;42.70;;;31.67;;
84614;SDS011;74845;51.204;22.580;2024-03-08T05:19:16;44.00;;;33.20;;
84614;SDS011;74845;51.204;22.580;2024-03-08T05:21:44;41.25;;;34.30;;
84614;SDS011;74845;51.204;22.580;2024-03-08T05:24:15;46.45;;;34.17;;
84614;SDS011;74845;51.204;22.580;2024-03-08T05:26:44;40.65;;;34.17;;
84614;SDS011;74845;51.204;22.580;2024-03-08T05:29:13;40.25;;;33.25;;
84614;SDS011;74845;51.204;22.580;2024-03-08T05:34:15;44.38;;;32.67;;
84614;SDS011;74845;51.204;22.580;2024-03-08T05:36:42;43.83;;;33.97;;
84614;SDS011;74845;51.204;22.580;2024-03-08T05:39:21;39.30;;;32.30;;
84614;SDS011;74845;51.204;22.580;2024-03-08T05:41:48;41.90;;;34.58;;
84614;SDS011;74845;51.204;22.580;2024-03-08T05:44:15;41.00;;;31.13;;
84614;SDS011;74845;51.204;22.580;2024-03-08T05:46:44;42.95;;;32.75;;
84614;SDS011;74845;51.204;22.580;2024-03-08T05:49:14;41.80;;;31.65;;
84614;SDS011;74845;51.204;22.580;2024-03-08T05:51:41;37.65;;;32.05;;
84614;SDS011;74845;51.204;22.580;2024-03-08T05:54:08;44.53;;;35.33;;
84614;SDS011;74845;51.204;22.580;2024-03-08T05:56:40;38.92;;;31.70;;
84614;SDS011;74845;51.204;22.580;2024-03-08T05:59:09;46.30;;;34.80;;
84614;SDS011;74845;51.204;22.580;2024-03-08T06:01:36;49.22;;;35.67;;
84614;SDS011;74845;51.204;22.580;2024-03-08T06:04:03;43.92;;;36.00;;
84614;SDS011;74845;51.204;22.580;2024-03-08T06:06:30;40.35;;;34.08;;
84614;SDS011;74845;51.204;22.580;2024-03-08T06:08:57;45.25;;;35.53;;
84614;SDS011;74845;51.204;22.580;2024-03-08T06:11:25;43.00;;;34.17;;
84614;SDS011;74845;51.204;22.580;2024-03-08T06:13:54;37.53;;;30.42;;
84614;SDS011;74845;51.204;22.580;2024-03-08T06:16:27;44.65;;;34.85;;
84614;SDS011;74845;51.204;22.580;2024-03-08T06:18:56;35.65;;;30.90;;
84614;SDS011;74845;51.204;22.580;2024-03-08T06:21:24;39.47;;;32.85;;
84614;SDS011;74845;51.204;22.580;2024-03-08T06:23:54;38.10;;;33.88;;
84614;SDS011;74845;51.204;22.580;2024-03-08T06:26:21;43.72;;;35.70;;
84614;SDS011;74845;51.204;22.580;2024-03-08T06:28:48;41.95;;;35.17;;
84614;SDS011;74845;51.204;22.580;2024-03-08T06:31:15;43.92;;;39.17;;
84614;SDS011;74845;51.204;22.580;2024-03-08T06:33:42;45.80;;;40.58;;
84614;SDS011;74845;51.204;22.580;2024-03-08T06:36:09;43.72;;;38.15;;
84614;SDS011;74845;51.204;22.580;2024-03-08T06:38:38;45.40;;;39.50;;
84614;SDS011;74845;51.204;22.580;2024-03-08T06:41:09;43.88;;;39.22;;
84614;SDS011;74845;51.204;22.580;2024-03-08T06:43:42;44.53;;;37.58;;
84614;SDS011;74845;51.204;22.580;2024-03-08T06:46:09;45.28;;;39.10;;
84614;SDS011;74845;51.204;22.580;2024-03-08T06:48:39;42.53;;;37.95;;
84614;SDS011;74845;51.204;22.580;2024-03-08T06:51:06;47.83;;;38.78;;
84614;SDS011;74845;51.204;22.580;2024-03-08T06:53:33;43.55;;;39.00;;
84614;SDS011;74845;51.204;22.580;2024-03-08T06:56:03;41.80;;;37.22;;
84614;SDS011;74845;51.204;22.580;2024-03-08T06:58:30;48.17;;;39.08;;
84614;SDS011;74845;51.204;22.580;2024-03-08T07:00:57;42.20;;;37.22;;
84614;SDS011;74845;51.204;22.580;2024-03-08T07:03:27;42.15;;;37.60;;
84614;SDS011;74845;51.204;22.580;2024-03-08T07:05:56;43.10;;;37.92;;
84614;SDS011;74845;51.204;22.580;2024-03-08T07:08:26;40.05;;;35.67;;
84614;SDS011;74845;51.204;22.580;2024-03-08T07:10:56;47.78;;;38.03;;
84614;SDS011;74845;51.204;22.580;2024-03-08T07:13:25;39.13;;;35.08;;
84614;SDS011;74845;51.204;22.580;2024-03-08T07:15:55;38.92;;;34.95;;
84614;SDS011;74845;51.204;22.580;2024-03-08T07:18:22;38.78;;;34.72;;
84614;SDS011;74845;51.204;22.580;2024-03-08T07:20:49;39.78;;;35.05;;
84614;SDS011;74845;51.204;22.580;2024-03-08T07:23:16;39.13;;;35.08;;
84614;SDS011;74845;51.204;22.580;2024-03-08T07:26:03;37.25;;;33.75;;
84614;SDS011;74845;51.204;22.580;2024-03-08T07:28:30;37.90;;;34.05;;
84614;SDS011;74845;51.204;22.580;2024-03-08T07:31:00;37.10;;;33.42;;
84614;SDS011;74845;51.204;22.580;2024-03-08T07:33:38;37.83;;;34.15;;
84614;SDS011;74845;51.204;22.580;2024-03-08T07:36:05;37.72;;;34.00;;
84614;SDS011;74845;51.204;22.580;2024-03-08T07:38:32;37.67;;;33.70;;
84614;SDS011;74845;51.204;22.580;2024-03-08T07:40:59;39.33;;;35.13;;
84614;SDS011;74845;51.204;22.580;2024-03-08T07:43:30;37.70;;;33.65;;
84614;SDS011;74845;51.204;22.580;2024-03-08T07:45:57;35.53;;;31.85;;
84614;SDS011;74845;51.204;22.580;2024-03-08T07:48:24;34.58;;;31.17;;
84614;SDS011;74845;51.204;22.580;2024-03-08T07:50:51;33.58;;;29.63;;
84614;SDS011;74845;51.204;22.580;2024-03-08T07:53:18;31.52;;;27.90;;
84614;SDS011;74845;51.204;22.580;2024-03-08T07:55:44;28.08;;;25.48;;
84614;SDS011;74845;51.204;22.580;2024-03-08T07:58:11;29.80;;;26.63;;
84614;SDS011;74845;51.204;22.580;2024-03-08T08:00:38;29.42;;;25.50;;
84614;SDS011;74845;51.204;22.580;2024-03-08T08:03:04;27.90;;;24.95;;
84614;SDS011;74845;51.204;22.580;2024-03-08T08:05:31;27.17;;;24.45;;
84614;SDS011;74845;51.204;22.580;2024-03-08T08:08:02;26.80;;;24.00;;
84614;SDS011;74845;51.204;22.580;2024-03-08T08:10:32;28.27;;;25.73;;
84614;SDS011;74845;51.204;22.580;2024-03-08T08:12:59;27.63;;;24.83;;
84614;SDS011;74845;51.204;22.580;2024-03-08T08:15:28;27.80;;;24.85;;
84614;SDS011;74845;51.204;22.580;2024-03-08T08:17:54;27.05;;;24.50;;
84614;SDS011;74845;51.204;22.580;2024-03-08T08:20:21;25.02;;;22.63;;
84614;SDS011;74845;51.204;22.580;2024-03-08T08:22:49;31.45;;;23.77;;
84614;SDS011;74845;51.204;22.580;2024-03-08T08:25:16;20.58;;;18.63;;
84614;SDS011;74845;51.204;22.580;2024-03-08T08:27:47;21.17;;;19.25;;
84614;SDS011;74845;51.204;22.580;2024-03-08T08:30:13;17.48;;;15.90;;
84614;SDS011;74845;51.204;22.580;2024-03-08T08:32:40;15.02;;;13.63;;
84614;SDS011;74845;51.204;22.580;2024-03-08T08:35:09;17.60;;;16.02;;
84614;SDS011;74845;51.204;22.580;2024-03-08T08:37:39;16.10;;;14.73;;
84614;SDS011;74845;51.204;22.580;2024-03-08T08:40:07;17.53;;;16.03;;
84614;SDS011;74845;51.204;22.580;2024-03-08T08:42:42;15.70;;;14.23;;
84614;SDS011;74845;51.204;22.580;2024-03-08T08:45:09;15.83;;;14.23;;
84614;SDS011;74845;51.204;22.580;2024-03-08T08:47:43;14.07;;;12.80;;
84614;SDS011;74845;51.204;22.580;2024-03-08T08:50:12;13.60;;;12.45;;
84614;SDS011;74845;51.204;22.580;2024-03-08T08:52:39;13.75;;;12.50;;
84614;SDS011;74845;51.204;22.580;2024-03-08T08:55:07;16.85;;;15.13;;
84614;SDS011;74845;51.204;22.580;2024-03-08T08:57:34;14.65;;;13.55;;
84614;SDS011;74845;51.204;22.580;2024-03-08T09:00:02;14.57;;;13.32;;
84614;SDS011;74845;51.204;22.580;2024-03-08T09:02:34;14.20;;;12.90;;
84614;SDS011;74845;51.204;22.580;2024-03-08T09:05:01;16.75;;;14.52;;
84614;SDS011;74845;51.204;22.580;2024-03-08T09:07:29;15.77;;;14.48;;
84614;SDS011;74845;51.204;22.580;2024-03-08T09:09:56;16.10;;;14.50;;
84614;SDS011;74845;51.204;22.580;2024-03-08T09:12:25;16.88;;;15.23;;
84614;SDS011;74845;51.204;22.580;2024-03-08T09:14:52;20.17;;;18.27;;
84614;SDS011;74845;51.204;22.580;2024-03-08T09:17:19;17.23;;;15.50;;
84614;SDS011;74845;51.204;22.580;2024-03-08T09:19:49;17.05;;;15.48;;
84614;SDS011;74845;51.204;22.580;2024-03-08T09:22:16;18.80;;;16.98;;
84614;SDS011;74845;51.204;22.580;2024-03-08T09:24:43;19.20;;;17.50;;
84614;SDS011;74845;51.204;22.580;2024-03-08T09:27:10;22.07;;;19.93;;
84614;SDS011;74845;51.204;22.580;2024-03-08T09:29:37;18.00;;;16.33;;
84614;SDS011;74845;51.204;22.580;2024-03-08T09:32:03;18.27;;;16.60;;
84614;SDS011;74845;51.204;22.580;2024-03-08T09:34:31;18.15;;;16.33;;
84614;SDS011;74845;51.204;22.580;2024-03-08T09:37:03;14.80;;;13.48;;
84614;SDS011;74845;51.204;22.580;2024-03-08T09:39:31;17.87;;;16.17;;
84614;SDS011;74845;51.204;22.580;2024-03-08T09:42:00;15.32;;;13.93;;
84614;SDS011;74845;51.204;22.580;2024-03-08T09:44:27;13.70;;;12.35;;
84614;SDS011;74845;51.204;22.580;2024-03-08T09:46:55;14.35;;;13.13;;
84614;SDS011;74845;51.204;22.580;2024-03-08T09:49:22;13.57;;;12.15;;
84614;SDS011;74845;51.204;22.580;2024-03-08T09:51:49;14.82;;;13.40;;
84614;SDS011;74845;51.204;22.580;2024-03-08T09:54:19;12.52;;;11.32;;
84614;SDS011;74845;51.204;22.580;2024-03-08T09:56:50;10.27;;;9.38;;
84614;SDS011;74845;51.204;22.580;2024-03-08T10:01:54;8.82;;;8.02;;
84614;SDS011;74845;51.204;22.580;2024-03-08T10:04:25;9.80;;;8.93;;
84614;SDS011;74845;51.204;22.580;2024-03-08T10:06:54;15.48;;;8.90;;
84614;SDS011;74845;51.204;22.580;2024-03-08T10:09:23;9.38;;;8.52;;
84614;SDS011;74845;51.204;22.580;2024-03-08T10:11:53;9.50;;;8.60;;
84614;SDS011;74845;51.204;22.580;2024-03-08T10:14:22;10.85;;;9.88;;
84614;SDS011;74845;51.204;22.580;2024-03-08T10:16:49;9.97;;;9.07;;
84614;SDS011;74845;51.204;22.580;2024-03-08T10:19:16;7.75;;;7.10;;
84614;SDS011;74845;51.204;22.580;2024-03-08T10:21:49;10.82;;;9.50;;
84614;SDS011;74845;51.204;22.580;2024-03-08T10:24:18;10.68;;;9.77;;
84614;SDS011;74845;51.204;22.580;2024-03-08T10:26:45;10.50;;;9.48;;
84614;SDS011;74845;51.204;22.580;2024-03-08T10:29:12;10.57;;;9.63;;
84614;SDS011;74845;51.204;22.580;2024-03-08T10:31:45;10.30;;;9.35;;
84614;SDS011;74845;51.204;22.580;2024-03-08T10:34:12;11.38;;;10.48;;
84614;SDS011;74845;51.204;22.580;2024-03-08T10:36:39;12.07;;;10.98;;
84614;SDS011;74845;51.204;22.580;2024-03-08T10:39:20;10.70;;;9.80;;
84614;SDS011;74845;51.204;22.580;2024-03-08T10:41:53;11.18;;;10.15;;
84614;SDS011;74845;51.204;22.580;2024-03-08T10:47:09;10.55;;;9.65;;
84614;SDS011;74845;51.204;22.580;2024-03-08T10:49:55;10.75;;;9.68;;
84614;SDS011;74845;51.204;22.580;2024-03-08T10:52:39;12.63;;;11.38;;
84614;SDS011;74845;51.204;22.580;2024-03-08T10:55:06;12.13;;;11.17;;
84614;SDS011;74845;51.204;22.580;2024-03-08T10:57:39;13.05;;;11.85;;
84614;SDS011;74845;51.204;22.580;2024-03-08T11:00:07;11.68;;;10.68;;
84614;SDS011;74845;51.204;22.580;2024-03-08T11:02:38;11.10;;;10.10;;
84614;SDS011;74845;51.204;22.580;2024-03-08T11:05:09;11.48;;;10.48;;
84614;SDS011;74845;51.204;22.580;2024-03-08T11:07:42;13.38;;;12.10;;
84614;SDS011;74845;51.204;22.580;2024-03-08T11:10:19;11.20;;;10.32;;
84614;SDS011;74845;51.204;22.580;2024-03-08T11:12:46;12.30;;;11.07;;
84614;SDS011;74845;51.204;22.580;2024-03-08T11:15:14;16.05;;;14.57;;
84614;SDS011;74845;51.204;22.580;2024-03-08T11:17:48;14.93;;;13.20;;
84614;SDS011;74845;51.204;22.580;2024-03-08T11:20:16;14.38;;;12.88;;
84614;SDS011;74845;51.204;22.580;2024-03-08T11:22:53;13.07;;;11.85;;
84614;SDS011;74845;51.204;22.580;2024-03-08T11:25:40;13.73;;;12.40;;
84614;SDS011;74845;51.204;22.580;2024-03-08T11:28:13;13.68;;;12.57;;
84614;SDS011;74845;51.204;22.580;2024-03-08T11:31:30;14.88;;;12.10;;
84614;SDS011;74845;51.204;22.580;2024-03-08T11:33:35;13.23;;;11.82;;
84614;SDS011;74845;51.204;22.580;2024-03-08T11:38:43;14.73;;;13.43;;
84614;SDS011;74845;51.204;22.580;2024-03-08T11:41:10;14.88;;;12.50;;
84614;SDS011;74845;51.204;22.580;2024-03-08T11:43:44;15.07;;;13.75;;
84614;SDS011;74845;51.204;22.580;2024-03-08T11:46:12;15.73;;;14.23;;
84614;SDS011;74845;51.204;22.580;2024-03-08T11:48:41;16.40;;;14.88;;
84614;SDS011;74845;51.204;22.580;2024-03-08T11:53:41;14.02;;;12.65;;
84614;SDS011;74845;51.204;22.580;2024-03-08T11:56:13;15.60;;;13.95;;
84614;SDS011;74845;51.204;22.580;2024-03-08T11:58:41;16.92;;;15.35;;
84614;SDS011;74845;51.204;22.580;2024-03-08T12:01:08;15.68;;;14.00;;
84614;SDS011;74845;51.204;22.580;2024-03-08T12:03:40;15.50;;;14.13;;
84614;SDS011;74845;51.204;22.580;2024-03-08T12:06:09;17.08;;;15.23;;
84614;SDS011;74845;51.204;22.580;2024-03-08T12:08:37;17.55;;;15.73;;
84614;SDS011;74845;51.204;22.580;2024-03-08T12:11:04;17.92;;;16.10;;
84614;SDS011;74845;51.204;22.580;2024-03-08T12:13:32;17.42;;;14.50;;
84614;SDS011;74845;51.204;22.580;2024-03-08T12:18:34;15.77;;;14.27;;
84614;SDS011;74845;51.204;22.580;2024-03-08T12:21:08;14.77;;;13.20;;
84614;SDS011;74845;51.204;22.580;2024-03-08T12:24:13;16.13;;;14.63;;
84614;SDS011;74845;51.204;22.580;2024-03-08T12:26:43;17.92;;;15.07;;
84614;SDS011;74845;51.204;22.580;2024-03-08T12:29:20;16.45;;;14.75;;
84614;SDS011;74845;51.204;22.580;2024-03-08T12:31:53;17.20;;;15.40;;
84614;SDS011;74845;51.204;22.580;2024-03-08T12:34:21;15.13;;;13.40;;
84614;SDS011;74845;51.204;22.580;2024-03-08T12:36:48;17.67;;;15.75;;
84614;SDS011;74845;51.204;22.580;2024-03-08T12:39:18;15.95;;;13.63;;
84614;SDS011;74845;51.204;22.580;2024-03-08T12:41:55;15.38;;;13.55;;
84614;SDS011;74845;51.204;22.580;2024-03-08T12:44:23;17.02;;;15.13;;
84614;SDS011;74845;51.204;22.580;2024-03-08T12:46:51;16.48;;;14.85;;
84614;SDS011;74845;51.204;22.580;2024-03-08T12:49:20;16.67;;;14.98;;
84614;SDS011;74845;51.204;22.580;2024-03-08T12:51:51;18.73;;;15.35;;
84614;SDS011;74845;51.204;22.580;2024-03-08T12:54:19;16.27;;;14.55;;
84614;SDS011;74845;51.204;22.580;2024-03-08T12:56:50;16.10;;;14.15;;
84614;SDS011;74845;51.204;22.580;2024-03-08T12:59:20;16.60;;;14.90;;
84614;SDS011;74845;51.204;22.580;2024-03-08T13:01:48;16.88;;;15.10;;
84614;SDS011;74845;51.204;22.580;2024-03-08T13:04:17;17.00;;;15.30;;
84614;SDS011;74845;51.204;22.580;2024-03-08T13:06:45;18.38;;;16.40;;
84614;SDS011;74845;51.204;22.580;2024-03-08T13:09:19;16.63;;;15.07;;
84614;SDS011;74845;51.204;22.580;2024-03-08T13:11:46;17.80;;;15.93;;
84614;SDS011;74845;51.204;22.580;2024-03-08T13:14:13;16.10;;;14.45;;
84614;SDS011;74845;51.204;22.580;2024-03-08T13:16:40;18.02;;;15.30;;
84614;SDS011;74845;51.204;22.580;2024-03-08T13:19:06;16.73;;;15.00;;
84614;SDS011;74845;51.204;22.580;2024-03-08T13:21:33;17.75;;;15.95;;
84614;SDS011;74845;51.204;22.580;2024-03-08T13:24:01;18.38;;;16.20;;
84614;SDS011;74845;51.204;22.580;2024-03-08T13:26:29;19.23;;;16.25;;
84614;SDS011;74845;51.204;22.580;2024-03-08T13:28:59;17.70;;;16.00;;
84614;SDS011;74845;51.204;22.580;2024-03-08T13:31:27;19.90;;;15.75;;
84614;SDS011;74845;51.204;22.580;2024-03-08T13:33:53;17.95;;;16.20;;
84614;SDS011;74845;51.204;22.580;2024-03-08T13:36:25;18.92;;;17.02;;
84614;SDS011;74845;51.204;22.580;2024-03-08T13:38:55;19.27;;;17.38;;
84614;SDS011;74845;51.204;22.580;2024-03-08T13:41:25;17.65;;;15.88;;
84614;SDS011;74845;51.204;22.580;2024-03-08T13:43:54;19.00;;;17.02;;
84614;SDS011;74845;51.204;22.580;2024-03-08T13:46:22;18.30;;;15.55;;
84614;SDS011;74845;51.204;22.580;2024-03-08T13:48:51;19.33;;;17.30;;
84614;SDS011;74845;51.204;22.580;2024-03-08T13:51:27;18.15;;;16.23;;
84614;SDS011;74845;51.204;22.580;2024-03-08T13:53:54;18.08;;;16.25;;
84614;SDS011;74845;51.204;22.580;2024-03-08T13:56:20;17.35;;;15.63;;
84614;SDS011;74845;51.204;22.580;2024-03-08T13:58:48;17.73;;;15.80;;
84614;SDS011;74845;51.204;22.580;2024-03-08T14:01:18;16.88;;;15.05;;
84614;SDS011;74845;51.204;22.580;2024-03-08T14:03:45;19.45;;;16.92;;
84614;SDS011;74845;51.204;22.580;2024-03-08T14:06:11;18.45;;;16.50;;
84614;SDS011;74845;51.204;22.580;2024-03-08T14:08:49;20.02;;;16.42;;
84614;SDS011;74845;51.204;22.580;2024-03-08T14:11:16;18.83;;;17.08;;
84614;SDS011;74845;51.204;22.580;2024-03-08T14:13:45;19.35;;;17.38;;
84614;SDS011;74845;51.204;22.580;2024-03-08T14:16:13;19.35;;;17.40;;
84614;SDS011;74845;51.204;22.580;2024-03-08T14:18:40;20.05;;;17.63;;
84614;SDS011;74845;51.204;22.580;2024-03-08T14:21:07;20.52;;;18.38;;
84614;SDS011;74845;51.204;22.580;2024-03-08T14:23:37;22.17;;;19.17;;
84614;SDS011;74845;51.204;22.580;2024-03-08T14:26:04;20.98;;;17.50;;
84614;SDS011;74845;51.204;22.580;2024-03-08T14:28:34;20.77;;;18.42;;
84614;SDS011;74845;51.204;22.580;2024-03-08T14:31:01;21.48;;;18.70;;
84614;SDS011;74845;51.204;22.580;2024-03-08T14:33:32;19.73;;;17.27;;